KPUW/PUW METAR and TAF weather

Enter ICAO airport designator
Station Type Date Time Source
KPUW METAR 2022/12/05 12:53 UTC NOAA

KPUW 051253Z AUTO 00000KT 8SM BKN013 BKN027 OVC055 M06/M08 A2999 RMK AO2 SNB11E20 SLP192 P0000 T10611083


Station Type Date Time Source
KPUW Decoded METAR 2022/12/05 12:53 UTC NOAA

PULLMAN/MOSCOW RGNL AIRPORT , WA, United States (KPUW) 46-45N 117-07W 773M
Dec 05, 2022 - 07:53 AM EST / 2022.12.05 1253 UTC
Wind: Calm:0
Visibility: 8 mile(s):0
Sky conditions: overcast
Precipitation last hour: A trace
Temperature: 21.0 F (-6.1 C)
Dew Point: 17.1 F (-8.3 C)
Relative Humidity: 84%
Pressure (altimeter): 29.99 in. Hg (1015 hPa)
ob: KPUW 051253Z AUTO 00000KT 8SM BKN013 BKN027 OVC055 M06/M08 A2999 RMK AO2 SNB11E20 SLP192 P0000 T10611083
cycle: 13

Station Type Date Time Source
KPUW TAF 2022/12/05 12:48 UTC NOAA

TAF KPUW 051147Z 0512/0612 17002KT 4SM BR OVC011
FM052000 21004KT 6SM BR SCT013 OVC030

Example: see airport list